Potomac — WBF7534 — position and weather

sailwx.info

Track history (hours):
 
Tides and Currents Weather Stations Pressure Air Temp Water Temp Dewpoint Dewpoint Depression Visibility Wind Speed Wind Dir Waves Ship Positions

Potomac

Owner: POTOMAC ASSOCIATION, OAKLAND, CA. More information available from US FCC via Universal Licensing System and Coast Guard Vessel Documentation Center.

Last reported at 2015-Jul-05 05:33 UTC. Time now 2015-Jul-06 20:00 UTC.
Position N 37°48' W 122°17'.

Length 51 m; draft 3.1 m.

MMSI: 367166810.

Date/timePositionNaut miles runAvg speedWind from/ knotsBaromVisibWave heightAir tempDewpointWater temp
2015-Jul-05 05:33N 37°48' W 122°17'7 6.9
2015-Jul-05 04:33N 37°49' W 122°25'3 3.3
2015-Jul-05 03:34N 37°52' W 122°26'9 8.7
2015-Jul-05 02:33N 37°48' W 122°17'0 0.0
2015-Jul-05 01:27N 37°48' W 122°17'0 0.0
2015-Jul-05 00:33N 37°48' W 122°17'0 0.0
2015-Jul-04 23:30N 37°48' W 122°17'0 0.0
2015-Jul-04 22:30N 37°48' W 122°17'0 0.0
2015-Jul-04 21:33N 37°48' W 122°17'  
2015-Jun-28 00:33N 37°48' W 122°18'8 8.0
2015-Jun-27 23:33N 37°49' W 122°28'4 3.8
2015-Jun-27 22:33N 37°52' W 122°25'8 8.2
2015-Jun-27 21:33N 37°48' W 122°17'0 0.0
2015-Jun-27 20:33N 37°48' W 122°17'6 5.6
2015-Jun-27 19:33N 37°48' W 122°24'8 8.2
2015-Jun-27 18:33N 37°56' W 122°27'1111.0
2015-Jun-27 17:33N 37°48' W 122°18'2 0.1
2015-Jun-27 03:33N 37°48' W 122°20'1 1.1
2015-Jun-27 02:34N 37°48' W 122°22'4 3.7
2015-Jun-27 01:29N 37°48' W 122°17'  
Track history (hours):
 
Tides and Currents Weather Stations Pressure Air Temp Water Temp Dewpoint Dewpoint Depression Visibility Wind Speed Wind Dir Waves Ship Positions

Potomac

Owner: POTOMAC ASSOCIATION, OAKLAND, CA. More information available from US FCC via Universal Licensing System and Coast Guard Vessel Documentation Center.

Last reported at 2015-Jul-05 05:33 UTC. Time now 2015-Jul-06 20:00 UTC.
Position N 37°48' W 122°17'.

Length 51 m; draft 3.1 m.

MMSI: 367166810.

Date/timePositionNaut miles runAvg speedWind from/ knotsBaromVisibWave heightAir tempDewpointWater temp
2015-Jul-05 05:33N 37°48' W 122°17'7 6.9
2015-Jul-05 04:33N 37°49' W 122°25'3 3.3
2015-Jul-05 03:34N 37°52' W 122°26'9 8.7
2015-Jul-05 02:33N 37°48' W 122°17'0 0.0
2015-Jul-05 01:27N 37°48' W 122°17'0 0.0
2015-Jul-05 00:33N 37°48' W 122°17'0 0.0
2015-Jul-04 23:30N 37°48' W 122°17'0 0.0
2015-Jul-04 22:30N 37°48' W 122°17'0 0.0
2015-Jul-04 21:33N 37°48' W 122°17'  
2015-Jun-28 00:33N 37°48' W 122°18'8 8.0
2015-Jun-27 23:33N 37°49' W 122°28'4 3.8
2015-Jun-27 22:33N 37°52' W 122°25'8 8.2
2015-Jun-27 21:33N 37°48' W 122°17'0 0.0
2015-Jun-27 20:33N 37°48' W 122°17'6 5.6
2015-Jun-27 19:33N 37°48' W 122°24'8 8.2
2015-Jun-27 18:33N 37°56' W 122°27'1111.0
2015-Jun-27 17:33N 37°48' W 122°18'2 0.1
2015-Jun-27 03:33N 37°48' W 122°20'1 1.1
2015-Jun-27 02:34N 37°48' W 122°22'4 3.7
2015-Jun-27 01:29N 37°48' W 122°17'  

Dump ship's entire track history